sensor_id;sensor_type;location;lat;lon;timestamp;pressure;altitude;pressure_sealevel;temperature;humidity
28626;BME280;18905;42.668;23.364;2023-03-26T00:00:46;94613.03;;;10.73;100.00
28626;BME280;18905;42.668;23.364;2023-03-26T00:03:16;94591.69;;;10.39;100.00
28626;BME280;18905;42.668;23.364;2023-03-26T00:05:43;94601.97;;;10.46;100.00
28626;BME280;18905;42.668;23.364;2023-03-26T00:08:10;94589.84;;;10.52;100.00
28626;BME280;18905;42.668;23.364;2023-03-26T00:10:37;94533.97;;;10.03;100.00
28626;BME280;18905;42.668;23.364;2023-03-26T00:13:05;94590.38;;;10.45;100.00
28626;BME280;18905;42.668;23.364;2023-03-26T00:15:31;94605.72;;;10.33;100.00
28626;BME280;18905;42.668;23.364;2023-03-26T00:17:57;94540.13;;;10.12;100.00
28626;BME280;18905;42.668;23.364;2023-03-26T00:20:25;94586.09;;;10.65;100.00
28626;BME280;18905;42.668;23.364;2023-03-26T00:22:52;94554.13;;;10.34;100.00
28626;BME280;18905;42.668;23.364;2023-03-26T00:25:17;94497.81;;;10.04;100.00
28626;BME280;18905;42.668;23.364;2023-03-26T00:27:44;94541.59;;;10.30;100.00
28626;BME280;18905;42.668;23.364;2023-03-26T00:30:10;94513.16;;;10.12;100.00
28626;BME280;18905;42.668;23.364;2023-03-26T00:32:36;94577.59;;;10.54;100.00
28626;BME280;18905;42.668;23.364;2023-03-26T00:35:03;94547.00;;;10.30;100.00
28626;BME280;18905;42.668;23.364;2023-03-26T00:37:28;94573.59;;;10.60;100.00
28626;BME280;18905;42.668;23.364;2023-03-26T00:39:55;94521.19;;;10.20;100.00
28626;BME280;18905;42.668;23.364;2023-03-26T00:42:27;94567.41;;;10.39;100.00
28626;BME280;18905;42.668;23.364;2023-03-26T00:44:53;94575.31;;;10.44;100.00
28626;BME280;18905;42.668;23.364;2023-03-26T00:47:22;94573.56;;;10.40;100.00
28626;BME280;18905;42.668;23.364;2023-03-26T00:49:48;94543.34;;;10.05;100.00
28626;BME280;18905;42.668;23.364;2023-03-26T00:52:15;94577.91;;;10.32;100.00
28626;BME280;18905;42.668;23.364;2023-03-26T00:54:44;94568.00;;;10.24;100.00
28626;BME280;18905;42.668;23.364;2023-03-26T00:57:09;94570.75;;;10.36;100.00
28626;BME280;18905;42.668;23.364;2023-03-26T00:59:36;94550.88;;;10.20;100.00
28626;BME280;18905;42.668;23.364;2023-03-26T01:02:02;94571.97;;;10.47;100.00
28626;BME280;18905;42.668;23.364;2023-03-26T01:04:30;94563.69;;;10.23;100.00
28626;BME280;18905;42.668;23.364;2023-03-26T01:07:11;94564.63;;;10.27;100.00
28626;BME280;18905;42.668;23.364;2023-03-26T01:09:42;94576.75;;;10.42;100.00
28626;BME280;18905;42.668;23.364;2023-03-26T01:12:12;94579.66;;;10.37;100.00
28626;BME280;18905;42.668;23.364;2023-03-26T01:14:40;94563.19;;;10.30;100.00
28626;BME280;18905;42.668;23.364;2023-03-26T01:17:06;94581.75;;;10.52;100.00
28626;BME280;18905;42.668;23.364;2023-03-26T01:19:46;94586.00;;;10.32;100.00
28626;BME280;18905;42.668;23.364;2023-03-26T01:22:32;94591.22;;;10.58;100.00
28626;BME280;18905;42.668;23.364;2023-03-26T01:25:01;94567.28;;;10.56;100.00
28626;BME280;18905;42.668;23.364;2023-03-26T01:27:57;94598.22;;;10.38;100.00
28626;BME280;18905;42.668;23.364;2023-03-26T01:30:41;94550.28;;;10.15;100.00
28626;BME280;18905;42.668;23.364;2023-03-26T01:33:32;94563.25;;;9.92;100.00
28626;BME280;18905;42.668;23.364;2023-03-26T01:36:29;94514.38;;;9.65;100.00
28626;BME280;18905;42.668;23.364;2023-03-26T01:39:27;94512.97;;;9.59;100.00
28626;BME280;18905;42.668;23.364;2023-03-26T01:41:56;94605.16;;;10.19;100.00
28626;BME280;18905;42.668;23.364;2023-03-26T01:46:58;94547.91;;;9.76;100.00
28626;BME280;18905;42.668;23.364;2023-03-26T01:49:27;94607.94;;;10.31;100.00
28626;BME280;18905;42.668;23.364;2023-03-26T01:51:55;94574.41;;;10.03;100.00
28626;BME280;18905;42.668;23.364;2023-03-26T01:54:24;94550.59;;;9.84;100.00
28626;BME280;18905;42.668;23.364;2023-03-26T02:00:15;94611.31;;;10.28;100.00
28626;BME280;18905;42.668;23.364;2023-03-26T02:05:24;94591.53;;;10.15;100.00
28626;BME280;18905;42.668;23.364;2023-03-26T02:10:32;94592.78;;;9.80;100.00
28626;BME280;18905;42.668;23.364;2023-03-26T02:12:59;94591.97;;;9.88;100.00
28626;BME280;18905;42.668;23.364;2023-03-26T02:15:25;94618.31;;;9.83;100.00
28626;BME280;18905;42.668;23.364;2023-03-26T02:17:51;94528.81;;;9.23;100.00
28626;BME280;18905;42.668;23.364;2023-03-26T02:20:18;94552.25;;;9.22;100.00
28626;BME280;18905;42.668;23.364;2023-03-26T02:22:45;94623.09;;;9.77;100.00
28626;BME280;18905;42.668;23.364;2023-03-26T02:25:17;94528.50;;;9.16;100.00
28626;BME280;18905;42.668;23.364;2023-03-26T02:27:44;94576.28;;;9.44;100.00
28626;BME280;18905;42.668;23.364;2023-03-26T02:30:13;94560.75;;;9.50;100.00
28626;BME280;18905;42.668;23.364;2023-03-26T02:32:39;94594.59;;;9.68;100.00
28626;BME280;18905;42.668;23.364;2023-03-26T02:35:05;94575.97;;;9.46;100.00
28626;BME280;18905;42.668;23.364;2023-03-26T02:37:31;94590.66;;;9.57;100.00
28626;BME280;18905;42.668;23.364;2023-03-26T02:39:59;94611.09;;;9.58;100.00
28626;BME280;18905;42.668;23.364;2023-03-26T02:42:25;94617.09;;;9.72;100.00
28626;BME280;18905;42.668;23.364;2023-03-26T02:44:50;94556.38;;;9.28;100.00
28626;BME280;18905;42.668;23.364;2023-03-26T02:47:16;94601.31;;;9.53;100.00
28626;BME280;18905;42.668;23.364;2023-03-26T02:49:41;94596.22;;;9.60;100.00
28626;BME280;18905;42.668;23.364;2023-03-26T02:52:07;94617.56;;;9.74;100.00
28626;BME280;18905;42.668;23.364;2023-03-26T02:54:33;94624.66;;;9.78;100.00
28626;BME280;18905;42.668;23.364;2023-03-26T02:56:59;94566.88;;;9.13;100.00
28626;BME280;18905;42.668;23.364;2023-03-26T02:59:25;94618.84;;;9.68;100.00
28626;BME280;18905;42.668;23.364;2023-03-26T03:01:51;94631.94;;;9.40;100.00
28626;BME280;18905;42.668;23.364;2023-03-26T03:04:17;94618.00;;;9.38;100.00
28626;BME280;18905;42.668;23.364;2023-03-26T03:06:43;94594.28;;;9.06;100.00
28626;BME280;18905;42.668;23.364;2023-03-26T03:09:09;94581.59;;;9.07;100.00
28626;BME280;18905;42.668;23.364;2023-03-26T03:11:36;94632.59;;;9.29;100.00
28626;BME280;18905;42.668;23.364;2023-03-26T03:14:02;94620.09;;;9.16;100.00
28626;BME280;18905;42.668;23.364;2023-03-26T03:16:28;94573.72;;;8.76;100.00
28626;BME280;18905;42.668;23.364;2023-03-26T03:18:54;94632.44;;;9.17;100.00
28626;BME280;18905;42.668;23.364;2023-03-26T03:21:22;94557.44;;;8.47;100.00
28626;BME280;18905;42.668;23.364;2023-03-26T03:23:48;94649.88;;;9.19;100.00
28626;BME280;18905;42.668;23.364;2023-03-26T03:26:16;94659.66;;;9.32;100.00
28626;BME280;18905;42.668;23.364;2023-03-26T03:28:42;94571.53;;;8.70;100.00
28626;BME280;18905;42.668;23.364;2023-03-26T03:31:09;94666.84;;;9.28;100.00
28626;BME280;18905;42.668;23.364;2023-03-26T03:33:35;94670.28;;;9.37;100.00
28626;BME280;18905;42.668;23.364;2023-03-26T03:36:00;94594.00;;;8.74;100.00
28626;BME280;18905;42.668;23.364;2023-03-26T03:38:31;94670.63;;;9.19;100.00
28626;BME280;18905;42.668;23.364;2023-03-26T03:40:56;94655.22;;;9.36;100.00
28626;BME280;18905;42.668;23.364;2023-03-26T03:43:21;94588.13;;;8.80;100.00
28626;BME280;18905;42.668;23.364;2023-03-26T03:45:47;94654.63;;;9.31;100.00
28626;BME280;18905;42.668;23.364;2023-03-26T03:48:12;94596.34;;;9.01;100.00
28626;BME280;18905;42.668;23.364;2023-03-26T03:50:38;94649.72;;;9.16;100.00
28626;BME280;18905;42.668;23.364;2023-03-26T03:53:03;94655.59;;;9.01;100.00
28626;BME280;18905;42.668;23.364;2023-03-26T03:55:29;94671.91;;;9.13;100.00
28626;BME280;18905;42.668;23.364;2023-03-26T03:57:55;94666.81;;;9.20;100.00
28626;BME280;18905;42.668;23.364;2023-03-26T04:00:22;94670.16;;;9.08;100.00
28626;BME280;18905;42.668;23.364;2023-03-26T04:02:48;94629.78;;;8.91;100.00
28626;BME280;18905;42.668;23.364;2023-03-26T04:05:14;94663.34;;;9.19;100.00
28626;BME280;18905;42.668;23.364;2023-03-26T04:07:39;94673.47;;;9.22;100.00
28626;BME280;18905;42.668;23.364;2023-03-26T04:10:07;94672.72;;;9.05;100.00
28626;BME280;18905;42.668;23.364;2023-03-26T04:12:32;94682.03;;;8.90;100.00
28626;BME280;18905;42.668;23.364;2023-03-26T04:14:59;94693.78;;;9.11;100.00
28626;BME280;18905;42.668;23.364;2023-03-26T04:17:25;94690.75;;;8.96;100.00
28626;BME280;18905;42.668;23.364;2023-03-26T04:19:50;94700.56;;;9.00;100.00
28626;BME280;18905;42.668;23.364;2023-03-26T04:22:19;94700.41;;;8.97;100.00
28626;BME280;18905;42.668;23.364;2023-03-26T04:24:45;94655.91;;;8.65;100.00
28626;BME280;18905;42.668;23.364;2023-03-26T04:27:16;94733.06;;;9.12;100.00
28626;BME280;18905;42.668;23.364;2023-03-26T04:29:46;94661.47;;;8.86;100.00
28626;BME280;18905;42.668;23.364;2023-03-26T04:32:24;94735.75;;;9.21;100.00
28626;BME280;18905;42.668;23.364;2023-03-26T04:34:54;94670.19;;;9.00;100.00
28626;BME280;18905;42.668;23.364;2023-03-26T04:37:26;94751.44;;;9.19;100.00
28626;BME280;18905;42.668;23.364;2023-03-26T04:39:53;94681.91;;;8.78;100.00
28626;BME280;18905;42.668;23.364;2023-03-26T04:42:19;94719.25;;;8.97;100.00
28626;BME280;18905;42.668;23.364;2023-03-26T04:44:48;94741.59;;;9.06;100.00
28626;BME280;18905;42.668;23.364;2023-03-26T04:47:16;94724.00;;;9.17;100.00
28626;BME280;18905;42.668;23.364;2023-03-26T04:49:42;94754.31;;;9.31;100.00
28626;BME280;18905;42.668;23.364;2023-03-26T04:52:10;94696.94;;;8.79;100.00
28626;BME280;18905;42.668;23.364;2023-03-26T04:54:36;94704.56;;;9.11;100.00
28626;BME280;18905;42.668;23.364;2023-03-26T04:57:05;94689.31;;;9.07;100.00
28626;BME280;18905;42.668;23.364;2023-03-26T04:59:33;94723.88;;;9.13;100.00
28626;BME280;18905;42.668;23.364;2023-03-26T05:02:03;94752.69;;;9.04;100.00
28626;BME280;18905;42.668;23.364;2023-03-26T05:04:30;94652.72;;;8.55;100.00
28626;BME280;18905;42.668;23.364;2023-03-26T05:06:57;94586.81;;;8.10;100.00
28626;BME280;18905;42.668;23.364;2023-03-26T05:09:24;94698.22;;;8.99;100.00
28626;BME280;18905;42.668;23.364;2023-03-26T05:11:50;94657.34;;;8.63;100.00
28626;BME280;18905;42.668;23.364;2023-03-26T05:14:16;94692.31;;;8.80;100.00
28626;BME280;18905;42.668;23.364;2023-03-26T05:16:42;94760.94;;;9.42;100.00
28626;BME280;18905;42.668;23.364;2023-03-26T05:19:09;94726.38;;;9.44;100.00
28626;BME280;18905;42.668;23.364;2023-03-26T05:21:34;94738.78;;;9.45;100.00
28626;BME280;18905;42.668;23.364;2023-03-26T05:24:00;94701.69;;;9.33;100.00
28626;BME280;18905;42.668;23.364;2023-03-26T05:26:26;94751.25;;;9.58;100.00
28626;BME280;18905;42.668;23.364;2023-03-26T05:28:54;94721.16;;;9.47;100.00
28626;BME280;18905;42.668;23.364;2023-03-26T05:31:20;94777.91;;;9.68;100.00
28626;BME280;18905;42.668;23.364;2023-03-26T05:33:46;94715.78;;;9.47;100.00
28626;BME280;18905;42.668;23.364;2023-03-26T05:36:13;94780.84;;;10.00;100.00
28626;BME280;18905;42.668;23.364;2023-03-26T05:38:44;94723.63;;;9.95;100.00
28626;BME280;18905;42.668;23.364;2023-03-26T05:41:14;94770.19;;;10.21;100.00
28626;BME280;18905;42.668;23.364;2023-03-26T05:43:41;94689.84;;;9.80;100.00
28626;BME280;18905;42.668;23.364;2023-03-26T05:46:07;94766.25;;;10.01;100.00
28626;BME280;18905;42.668;23.364;2023-03-26T05:48:33;94780.22;;;10.20;100.00
28626;BME280;18905;42.668;23.364;2023-03-26T05:50:58;94785.03;;;10.44;100.00
28626;BME280;18905;42.668;23.364;2023-03-26T05:53:25;94670.50;;;9.87;100.00
28626;BME280;18905;42.668;23.364;2023-03-26T05:55:51;94726.06;;;9.62;100.00
28626;BME280;18905;42.668;23.364;2023-03-26T05:58:30;94801.78;;;10.03;100.00
28626;BME280;18905;42.668;23.364;2023-03-26T06:03:23;94729.28;;;10.02;100.00
28626;BME280;18905;42.668;23.364;2023-03-26T06:05:48;94750.28;;;9.79;100.00
28626;BME280;18905;42.668;23.364;2023-03-26T06:08:14;94771.13;;;10.25;100.00
28626;BME280;18905;42.668;23.364;2023-03-26T06:10:40;94708.69;;;9.89;100.00
28626;BME280;18905;42.668;23.364;2023-03-26T06:13:05;94670.34;;;9.83;100.00
28626;BME280;18905;42.668;23.364;2023-03-26T06:15:31;94689.03;;;10.63;100.00
28626;BME280;18905;42.668;23.364;2023-03-26T06:17:56;94765.19;;;11.68;100.00
28626;BME280;18905;42.668;23.364;2023-03-26T06:20:21;94760.56;;;11.89;100.00
28626;BME280;18905;42.668;23.364;2023-03-26T06:22:47;94766.34;;;12.68;100.00
28626;BME280;18905;42.668;23.364;2023-03-26T06:25:12;94701.31;;;13.16;100.00
28626;BME280;18905;42.668;23.364;2023-03-26T06:27:38;94689.16;;;12.74;99.41
28626;BME280;18905;42.668;23.364;2023-03-26T06:30:03;94740.34;;;13.27;95.55
28626;BME280;18905;42.668;23.364;2023-03-26T06:32:29;94774.72;;;13.11;95.08
28626;BME280;18905;42.668;23.364;2023-03-26T06:34:54;94769.88;;;12.81;95.79
28626;BME280;18905;42.668;23.364;2023-03-26T06:37:20;94709.84;;;13.30;93.88
28626;BME280;18905;42.668;23.364;2023-03-26T06:39:45;94747.03;;;13.97;88.16
28626;BME280;18905;42.668;23.364;2023-03-26T06:42:11;94706.28;;;14.55;83.70
28626;BME280;18905;42.668;23.364;2023-03-26T06:44:36;94755.31;;;15.24;78.32
28626;BME280;18905;42.668;23.364;2023-03-26T06:47:01;94756.38;;;15.20;76.50
28626;BME280;18905;42.668;23.364;2023-03-26T06:49:27;94749.25;;;15.84;74.65
28626;BME280;18905;42.668;23.364;2023-03-26T06:51:52;94783.22;;;15.71;70.52
28626;BME280;18905;42.668;23.364;2023-03-26T06:54:18;94781.38;;;15.94;85.12
28626;BME280;18905;42.668;23.364;2023-03-26T06:56:43;94789.91;;;16.72;82.97
28626;BME280;18905;42.668;23.364;2023-03-26T06:59:09;94785.81;;;17.56;75.48
28626;BME280;18905;42.668;23.364;2023-03-26T07:01:34;94792.47;;;16.05;75.46
28626;BME280;18905;42.668;23.364;2023-03-26T07:04:00;94791.19;;;18.08;68.02
28626;BME280;18905;42.668;23.364;2023-03-26T07:06:26;94800.03;;;18.28;66.32
28626;BME280;18905;42.668;23.364;2023-03-26T07:08:51;94804.66;;;15.92;64.50
28626;BME280;18905;42.668;23.364;2023-03-26T07:11:19;94804.41;;;16.38;65.76
28626;BME280;18905;42.668;23.364;2023-03-26T07:13:46;94795.94;;;15.48;79.87
28626;BME280;18905;42.668;23.364;2023-03-26T07:16:12;94798.09;;;17.95;72.46
28626;BME280;18905;42.668;23.364;2023-03-26T07:18:38;94801.22;;;19.00;58.62
28626;BME280;18905;42.668;23.364;2023-03-26T07:21:04;94782.66;;;19.73;60.44
28626;BME280;18905;42.668;23.364;2023-03-26T07:23:29;94798.44;;;17.94;58.61
28626;BME280;18905;42.668;23.364;2023-03-26T07:25:55;94794.72;;;17.79;65.37
28626;BME280;18905;42.668;23.364;2023-03-26T07:28:40;94783.25;;;18.26;58.87
28626;BME280;18905;42.668;23.364;2023-03-26T07:31:23;94771.28;;;16.55;63.03
28626;BME280;18905;42.668;23.364;2023-03-26T07:33:59;94785.03;;;17.07;68.05
28626;BME280;18905;42.668;23.364;2023-03-26T07:36:46;94764.94;;;17.41;67.54
28626;BME280;18905;42.668;23.364;2023-03-26T07:48:16;94786.22;;;17.32;57.29
28626;BME280;18905;42.668;23.364;2023-03-26T07:50:43;94786.66;;;16.25;65.88
28626;BME280;18905;42.668;23.364;2023-03-26T07:53:09;94778.34;;;16.18;62.83
28626;BME280;18905;42.668;23.364;2023-03-26T07:55:42;94787.03;;;18.47;62.93
28626;BME280;18905;42.668;23.364;2023-03-26T07:58:37;94789.84;;;18.94;61.69
28626;BME280;18905;42.668;23.364;2023-03-26T08:04:26;94776.09;;;20.81;53.66
28626;BME280;18905;42.668;23.364;2023-03-26T08:07:02;94784.44;;;19.01;50.60
28626;BME280;18905;42.668;23.364;2023-03-26T08:12:47;94779.06;;;20.37;51.12
28626;BME280;18905;42.668;23.364;2023-03-26T08:15:44;94768.56;;;17.49;51.62
28626;BME280;18905;42.668;23.364;2023-03-26T08:18:01;94779.91;;;19.19;52.40
28626;BME280;18905;42.668;23.364;2023-03-26T08:23:26;94768.72;;;19.99;48.14
28626;BME280;18905;42.668;23.364;2023-03-26T08:29:07;94744.47;;;18.90;53.51
28626;BME280;18905;42.668;23.364;2023-03-26T08:31:39;94774.06;;;19.21;48.15
28626;BME280;18905;42.668;23.364;2023-03-26T08:34:09;94775.94;;;19.60;47.10
28626;BME280;18905;42.668;23.364;2023-03-26T08:36:35;94771.31;;;19.21;45.79
28626;BME280;18905;42.668;23.364;2023-03-26T08:39:01;94742.47;;;18.87;49.28
28626;BME280;18905;42.668;23.364;2023-03-26T09:01:40;94767.34;;;20.40;45.51
28626;BME280;18905;42.668;23.364;2023-03-26T09:42:43;94743.56;;;17.21;44.93
28626;BME280;18905;42.668;23.364;2023-03-26T09:48:49;94755.50;;;15.85;48.62
28626;BME280;18905;42.668;23.364;2023-03-26T09:56:53;94735.78;;;17.45;49.30
28626;BME280;18905;42.668;23.364;2023-03-26T09:59:39;94706.25;;;17.54;49.42
28626;BME280;18905;42.668;23.364;2023-03-26T10:05:30;94722.47;;;16.47;49.61
28626;BME280;18905;42.668;23.364;2023-03-26T10:14:33;94702.47;;;17.36;44.53
28626;BME280;18905;42.668;23.364;2023-03-26T10:22:30;94699.25;;;21.06;46.91
28626;BME280;18905;42.668;23.364;2023-03-26T10:33:13;94666.63;;;17.67;43.77
28626;BME280;18905;42.668;23.364;2023-03-26T10:35:58;94665.28;;;17.84;41.88
28626;BME280;18905;42.668;23.364;2023-03-26T10:43:59;94657.03;;;17.80;42.71
28626;BME280;18905;42.668;23.364;2023-03-26T10:51:49;94643.06;;;19.19;76.64
28626;BME280;18905;42.668;23.364;2023-03-26T10:56:59;94645.19;;;19.47;44.68
28626;BME280;18905;42.668;23.364;2023-03-26T10:59:27;94636.91;;;20.36;51.29
28626;BME280;18905;42.668;23.364;2023-03-26T11:01:59;94647.59;;;19.62;43.06
28626;BME280;18905;42.668;23.364;2023-03-26T11:04:42;94636.41;;;19.99;48.90
28626;BME280;18905;42.668;23.364;2023-03-26T11:07:32;94635.84;;;19.51;44.89
28626;BME280;18905;42.668;23.364;2023-03-26T11:12:48;94622.91;;;19.48;47.12
28626;BME280;18905;42.668;23.364;2023-03-26T11:20:41;94626.97;;;19.89;48.30
28626;BME280;18905;42.668;23.364;2023-03-26T11:23:32;94632.63;;;19.39;37.91
28626;BME280;18905;42.668;23.364;2023-03-26T11:29:06;94619.97;;;18.59;39.18
28626;BME280;18905;42.668;23.364;2023-03-26T11:37:29;94618.28;;;19.73;38.25
28626;BME280;18905;42.668;23.364;2023-03-26T11:39:56;94603.19;;;20.35;39.53
28626;BME280;18905;42.668;23.364;2023-03-26T11:42:23;94597.41;;;19.34;36.40
28626;BME280;18905;42.668;23.364;2023-03-26T11:44:54;94596.16;;;20.20;40.19
28626;BME280;18905;42.668;23.364;2023-03-26T11:47:46;94584.03;;;18.61;37.04
28626;BME280;18905;42.668;23.364;2023-03-26T11:50:35;94580.34;;;18.90;37.09
28626;BME280;18905;42.668;23.364;2023-03-26T11:53:14;94573.59;;;18.73;38.25
28626;BME280;18905;42.668;23.364;2023-03-26T11:59:00;94565.22;;;18.49;35.91
28626;BME280;18905;42.668;23.364;2023-03-26T12:01:40;94501.84;;;17.49;35.39
28626;BME280;18905;42.668;23.364;2023-03-26T12:04:11;94474.78;;;17.01;34.92
28626;BME280;18905;42.668;23.364;2023-03-26T12:06:49;94503.34;;;17.43;35.46
28626;BME280;18905;42.668;23.364;2023-03-26T12:09:19;94441.69;;;17.39;36.84
28626;BME280;18905;42.668;23.364;2023-03-26T12:11:46;94543.38;;;18.52;36.14
28626;BME280;18905;42.668;23.364;2023-03-26T12:14:19;94432.41;;;17.47;35.83
28626;BME280;18905;42.668;23.364;2023-03-26T12:17:04;94542.88;;;18.40;36.99
28626;BME280;18905;42.668;23.364;2023-03-26T12:19:39;94522.69;;;18.58;35.73
28626;BME280;18905;42.668;23.364;2023-03-26T12:22:10;94504.34;;;18.55;34.87
28626;BME280;18905;42.668;23.364;2023-03-26T12:25:00;94364.91;;;17.91;34.81
28626;BME280;18905;42.668;23.364;2023-03-26T12:27:27;94388.13;;;17.64;33.86
28626;BME280;18905;42.668;23.364;2023-03-26T12:29:59;94375.19;;;17.57;35.03
28626;BME280;18905;42.668;23.364;2023-03-26T12:32:40;94408.03;;;18.22;34.06
28626;BME280;18905;42.668;23.364;2023-03-26T12:35:13;94400.53;;;18.08;34.29
28626;BME280;18905;42.668;23.364;2023-03-26T12:37:44;94497.34;;;18.61;34.27
28626;BME280;18905;42.668;23.364;2023-03-26T12:40:38;94490.50;;;19.02;33.76
28626;BME280;18905;42.668;23.364;2023-03-26T12:46:26;94361.72;;;17.78;33.16
28626;BME280;18905;42.668;23.364;2023-03-26T12:48:54;94347.22;;;17.24;32.40
28626;BME280;18905;42.668;23.364;2023-03-26T13:05:44;94361.06;;;17.99;29.92
28626;BME280;18905;42.668;23.364;2023-03-26T13:14:09;94422.44;;;18.15;31.12
28626;BME280;18905;42.668;23.364;2023-03-26T13:16:47;94448.34;;;18.35;30.00
28626;BME280;18905;42.668;23.364;2023-03-26T13:22:38;94442.03;;;18.28;30.41
28626;BME280;18905;42.668;23.364;2023-03-26T13:25:22;94455.31;;;18.29;30.24
28626;BME280;18905;42.668;23.364;2023-03-26T13:36:22;94331.72;;;17.31;29.80
28626;BME280;18905;42.668;23.364;2023-03-26T13:39:11;94449.31;;;18.10;29.70
28626;BME280;18905;42.668;23.364;2023-03-26T13:44:31;94447.09;;;18.26;30.94
28626;BME280;18905;42.668;23.364;2023-03-26T13:47:06;94446.75;;;17.77;31.11
28626;BME280;18905;42.668;23.364;2023-03-26T13:49:50;94439.94;;;18.04;30.51
28626;BME280;18905;42.668;23.364;2023-03-26T13:55:29;94396.78;;;17.73;29.37
28626;BME280;18905;42.668;23.364;2023-03-26T13:58:05;94433.25;;;17.98;29.72
28626;BME280;18905;42.668;23.364;2023-03-26T14:01:07;94425.06;;;17.98;31.09
28626;BME280;18905;42.668;23.364;2023-03-26T14:04:00;94291.09;;;17.26;31.09
28626;BME280;18905;42.668;23.364;2023-03-26T14:06:39;94351.88;;;17.67;29.93
28626;BME280;18905;42.668;23.364;2023-03-26T14:09:18;94442.41;;;18.26;30.58
28626;BME280;18905;42.668;23.364;2023-03-26T14:17:14;94289.75;;;17.46;28.74
28626;BME280;18905;42.668;23.364;2023-03-26T14:20:19;94410.69;;;18.04;28.72
28626;BME280;18905;42.668;23.364;2023-03-26T14:25:47;94414.88;;;17.95;29.73
28626;BME280;18905;42.668;23.364;2023-03-26T14:37:38;94414.50;;;17.96;29.95
28626;BME280;18905;42.668;23.364;2023-03-26T14:40:14;94409.03;;;17.93;30.38
28626;BME280;18905;42.668;23.364;2023-03-26T14:53:59;94392.41;;;18.97;45.37
28626;BME280;18905;42.668;23.364;2023-03-26T14:56:37;94406.59;;;19.45;50.54
28626;BME280;18905;42.668;23.364;2023-03-26T15:11:26;94407.38;;;19.38;40.95
28626;BME280;18905;42.668;23.364;2023-03-26T15:25:03;94411.97;;;19.13;38.63
28626;BME280;18905;42.668;23.364;2023-03-26T15:33:04;94418.34;;;18.39;31.70
28626;BME280;18905;42.668;23.364;2023-03-26T15:43:25;94386.09;;;18.04;30.68
28626;BME280;18905;42.668;23.364;2023-03-26T15:54:56;94416.81;;;17.07;33.89
28626;BME280;18905;42.668;23.364;2023-03-26T16:00:27;94420.91;;;16.91;34.50
28626;BME280;18905;42.668;23.364;2023-03-26T16:03:30;94421.72;;;16.91;34.38
28626;BME280;18905;42.668;23.364;2023-03-26T16:11:06;94407.47;;;16.16;36.09
28626;BME280;18905;42.668;23.364;2023-03-26T16:13:39;94412.41;;;16.33;35.35
28626;BME280;18905;42.668;23.364;2023-03-26T16:21:35;94421.75;;;16.06;36.51
28626;BME280;18905;42.668;23.364;2023-03-26T16:29:23;94431.59;;;16.14;49.62
28626;BME280;18905;42.668;23.364;2023-03-26T16:34:56;94429.00;;;16.51;37.93
28626;BME280;18905;42.668;23.364;2023-03-26T16:37:48;94433.66;;;16.50;37.72
28626;BME280;18905;42.668;23.364;2023-03-26T16:46:36;94445.16;;;16.11;37.65
28626;BME280;18905;42.668;23.364;2023-03-26T16:49:29;94444.88;;;16.19;38.03
28626;BME280;18905;42.668;23.364;2023-03-26T16:55:05;94418.06;;;15.69;38.42
28626;BME280;18905;42.668;23.364;2023-03-26T16:57:42;94440.38;;;15.78;38.46
28626;BME280;18905;42.668;23.364;2023-03-26T17:05:17;94442.03;;;15.60;39.17
28626;BME280;18905;42.668;23.364;2023-03-26T17:10:54;94436.03;;;15.51;40.16
28626;BME280;18905;42.668;23.364;2023-03-26T17:16:21;94410.13;;;15.35;40.05
28626;BME280;18905;42.668;23.364;2023-03-26T17:21:33;94454.13;;;15.63;39.31
28626;BME280;18905;42.668;23.364;2023-03-26T17:26:58;94460.00;;;15.65;38.93
28626;BME280;18905;42.668;23.364;2023-03-26T17:40:58;94459.03;;;16.28;44.17
28626;BME280;18905;42.668;23.364;2023-03-26T17:46:03;94455.53;;;16.02;43.81
28626;BME280;18905;42.668;23.364;2023-03-26T17:48:33;94451.75;;;15.84;42.62
28626;BME280;18905;42.668;23.364;2023-03-26T17:54:01;94448.56;;;15.56;43.12
28626;BME280;18905;42.668;23.364;2023-03-26T17:56:33;94430.25;;;15.30;43.50
28626;BME280;18905;42.668;23.364;2023-03-26T17:59:02;94450.25;;;15.00;44.42
28626;BME280;18905;42.668;23.364;2023-03-26T18:01:39;94450.16;;;14.74;44.93
28626;BME280;18905;42.668;23.364;2023-03-26T18:04:15;94431.34;;;14.46;45.79
28626;BME280;18905;42.668;23.364;2023-03-26T18:10:10;94450.75;;;14.29;46.16
28626;BME280;18905;42.668;23.364;2023-03-26T18:18:50;94439.19;;;14.17;46.08
28626;BME280;18905;42.668;23.364;2023-03-26T18:21:35;94441.84;;;14.13;46.28
28626;BME280;18905;42.668;23.364;2023-03-26T18:24:06;94439.88;;;13.95;45.94
28626;BME280;18905;42.668;23.364;2023-03-26T18:26:44;94414.78;;;13.82;47.05
28626;BME280;18905;42.668;23.364;2023-03-26T18:29:21;94442.34;;;14.00;46.44
28626;BME280;18905;42.668;23.364;2023-03-26T18:31:52;94422.19;;;14.01;47.31
28626;BME280;18905;42.668;23.364;2023-03-26T18:34:19;94419.75;;;13.96;46.98
28626;BME280;18905;42.668;23.364;2023-03-26T18:36:45;94438.03;;;13.99;47.26
28626;BME280;18905;42.668;23.364;2023-03-26T18:39:18;94431.47;;;14.00;48.10
28626;BME280;18905;42.668;23.364;2023-03-26T18:41:43;94391.56;;;13.85;47.48
28626;BME280;18905;42.668;23.364;2023-03-26T18:44:15;94416.66;;;13.97;49.35
28626;BME280;18905;42.668;23.364;2023-03-26T18:46:42;94350.78;;;13.62;49.53
28626;BME280;18905;42.668;23.364;2023-03-26T18:49:15;94373.94;;;13.75;49.42
28626;BME280;18905;42.668;23.364;2023-03-26T18:51:42;94397.84;;;14.04;54.13
28626;BME280;18905;42.668;23.364;2023-03-26T18:54:13;94399.31;;;14.02;51.10
28626;BME280;18905;42.668;23.364;2023-03-26T18:56:42;94386.63;;;14.06;50.21